createdAt,value
2023-07-19T00:01:27.711Z,23.86
2023-07-19T00:03:21.153Z,23.86
2023-07-19T00:05:12.449Z,23.95
2023-07-19T00:07:04.207Z,23.97
2023-07-19T00:08:56.424Z,24.02
2023-07-19T00:10:47.786Z,24.04
2023-07-19T00:12:54.417Z,24.00
2023-07-19T00:14:47.600Z,23.98
2023-07-19T00:16:38.890Z,23.92
2023-07-19T00:18:30.050Z,23.83
2023-07-19T00:20:21.630Z,23.85
2023-07-19T00:22:13.079Z,23.88
2023-07-19T00:24:04.641Z,23.78
2023-07-19T00:25:55.896Z,23.71
2023-07-19T00:27:49.868Z,23.75
2023-07-19T00:29:41.409Z,23.73
2023-07-19T00:31:33.344Z,23.55
2023-07-19T00:33:25.455Z,23.42
2023-07-19T00:35:17.877Z,23.41
2023-07-19T00:37:09.513Z,23.42
2023-07-19T00:39:01.082Z,23.34
2023-07-19T00:40:52.938Z,23.31
2023-07-19T00:42:43.985Z,23.25
2023-07-19T00:44:35.156Z,23.20
2023-07-19T00:46:27.805Z,23.21
2023-07-19T00:48:19.337Z,23.21
2023-07-19T00:50:10.834Z,23.22
2023-07-19T00:52:03.490Z,23.21
2023-07-19T00:53:55.806Z,23.16
2023-07-19T00:55:51.068Z,23.15
2023-07-19T00:57:42.877Z,23.17
2023-07-19T00:59:34.728Z,23.11
2023-07-19T01:01:27.310Z,23.07
2023-07-19T01:03:20.500Z,23.04
2023-07-19T01:05:12.413Z,23.04
2023-07-19T01:07:04.581Z,22.97
2023-07-19T01:08:56.181Z,22.98
2023-07-19T01:10:47.979Z,22.97
2023-07-19T01:12:39.966Z,22.95
2023-07-19T01:14:31.390Z,22.93
2023-07-19T01:16:23.336Z,22.97
2023-07-19T01:18:14.514Z,22.90
2023-07-19T01:20:09.301Z,22.89
2023-07-19T01:22:00.615Z,22.91
2023-07-19T01:23:52.436Z,22.95
2023-07-19T01:25:44.191Z,22.99
2023-07-19T01:27:35.486Z,22.95
2023-07-19T01:29:27.267Z,22.99
2023-07-19T01:31:19.196Z,22.95
2023-07-19T01:33:20.448Z,22.98
2023-07-19T01:35:20.004Z,22.98
2023-07-19T01:37:11.394Z,22.90
2023-07-19T01:39:02.961Z,22.78
2023-07-19T01:40:54.540Z,22.80
2023-07-19T01:42:46.240Z,22.72
2023-07-19T01:44:37.804Z,22.69
2023-07-19T01:46:29.679Z,22.62
2023-07-19T01:48:20.975Z,22.78
2023-07-19T01:50:12.210Z,22.58
2023-07-19T01:52:03.749Z,22.58
2023-07-19T01:53:55.438Z,22.55
2023-07-19T01:55:46.958Z,22.52
2023-07-19T01:57:38.611Z,22.46
2023-07-19T01:59:29.819Z,22.47
2023-07-19T02:01:21.506Z,22.45
2023-07-19T02:03:13.284Z,22.43
2023-07-19T02:05:05.331Z,22.42
2023-07-19T02:06:57.143Z,22.36
2023-07-19T02:08:48.544Z,22.38
2023-07-19T02:10:39.711Z,22.37
2023-07-19T02:12:30.957Z,22.26
2023-07-19T02:14:22.472Z,22.22
2023-07-19T02:16:13.835Z,22.20
2023-07-19T02:18:05.622Z,22.24
2023-07-19T02:19:57.229Z,22.13
2023-07-19T02:21:48.714Z,22.13
2023-07-19T02:23:40.557Z,22.16
2023-07-19T02:25:31.629Z,22.14
2023-07-19T02:27:22.969Z,22.11
2023-07-19T02:29:14.609Z,22.03
2023-07-19T02:31:05.851Z,22.04
2023-07-19T02:32:57.610Z,21.87
2023-07-19T02:34:49.181Z,21.74
2023-07-19T02:36:40.986Z,21.67
2023-07-19T02:38:32.693Z,21.63
2023-07-19T02:40:24.387Z,21.61
2023-07-19T02:42:15.958Z,21.70
2023-07-19T02:44:07.243Z,21.74
2023-07-19T02:45:58.392Z,21.78
2023-07-19T02:47:49.833Z,21.73
2023-07-19T02:49:42.534Z,21.62
2023-07-19T02:51:34.133Z,21.50
2023-07-19T02:53:25.757Z,21.45
2023-07-19T02:55:17.479Z,21.45
2023-07-19T02:57:09.011Z,21.42
2023-07-19T02:59:00.177Z,21.38
2023-07-19T03:00:54.577Z,21.32
2023-07-19T03:02:48.006Z,21.37
2023-07-19T03:04:39.654Z,21.32
2023-07-19T03:06:31.085Z,21.33
2023-07-19T03:08:22.707Z,21.26
2023-07-19T03:10:14.044Z,21.22
2023-07-19T03:12:05.786Z,21.23
2023-07-19T03:13:57.079Z,21.22
2023-07-19T03:15:48.762Z,21.27
2023-07-19T03:17:40.553Z,21.34
2023-07-19T03:19:32.317Z,21.41
2023-07-19T03:21:24.126Z,21.40
2023-07-19T03:23:15.700Z,21.40
2023-07-19T03:25:07.704Z,21.50
2023-07-19T03:26:58.988Z,21.59
2023-07-19T03:28:50.732Z,21.62
2023-07-19T03:30:42.291Z,21.68
2023-07-19T03:32:33.951Z,21.66
2023-07-19T03:34:25.251Z,21.68
2023-07-19T03:36:16.717Z,21.60
2023-07-19T03:38:08.109Z,21.65
2023-07-19T03:39:59.619Z,21.73
2023-07-19T03:41:51.313Z,21.75
2023-07-19T03:43:42.462Z,21.66
2023-07-19T03:45:34.009Z,21.60
2023-07-19T03:47:26.449Z,21.58
2023-07-19T03:49:18.116Z,21.58
2023-07-19T03:51:09.545Z,21.60
2023-07-19T03:53:00.925Z,21.69
2023-07-19T03:54:55.030Z,21.74
2023-07-19T03:56:46.386Z,21.85
2023-07-19T03:58:40.547Z,21.97
2023-07-19T04:00:31.747Z,22.08
2023-07-19T04:02:23.613Z,22.14
2023-07-19T04:04:15.089Z,22.21
2023-07-19T04:06:06.510Z,22.37
2023-07-19T04:08:02.316Z,22.44
2023-07-19T04:09:53.745Z,22.50
2023-07-19T04:11:45.400Z,22.61
2023-07-19T04:13:37.039Z,22.66
2023-07-19T04:15:28.136Z,22.75
2023-07-19T04:17:19.815Z,22.91
2023-07-19T04:19:11.261Z,23.13
2023-07-19T04:21:03.779Z,23.21
2023-07-19T04:22:55.121Z,23.24
2023-07-19T04:24:47.236Z,23.34
2023-07-19T04:26:38.374Z,23.37
2023-07-19T04:28:29.828Z,23.41
2023-07-19T04:30:21.248Z,23.44
2023-07-19T04:32:12.406Z,23.49
2023-07-19T04:34:03.932Z,23.58
2023-07-19T04:35:55.153Z,23.73
2023-07-19T04:37:46.303Z,23.86
2023-07-19T04:39:37.960Z,23.88
2023-07-19T04:41:29.419Z,23.97
2023-07-19T04:43:20.769Z,24.07
2023-07-19T04:45:13.293Z,24.12
2023-07-19T04:47:05.705Z,24.23
2023-07-19T04:48:57.076Z,24.36
2023-07-19T04:50:53.532Z,24.43
2023-07-19T04:52:47.702Z,24.48
2023-07-19T04:54:38.969Z,24.60
2023-07-19T04:56:30.543Z,24.83
2023-07-19T04:58:21.930Z,24.90
2023-07-19T05:00:17.255Z,24.94
2023-07-19T05:02:10.633Z,25.01
2023-07-19T05:04:02.230Z,25.13
2023-07-19T05:05:55.782Z,25.10
2023-07-19T05:07:48.546Z,25.09
2023-07-19T05:09:45.024Z,25.39
2023-07-19T05:11:37.644Z,25.33
2023-07-19T05:13:29.153Z,25.26
2023-07-19T05:15:20.508Z,25.42
2023-07-19T05:17:11.685Z,25.65
2023-07-19T05:19:03.975Z,25.62
2023-07-19T05:20:55.810Z,25.67
2023-07-19T05:22:47.574Z,25.72
2023-07-19T05:24:39.490Z,25.82
2023-07-19T05:26:31.584Z,25.90
2023-07-19T05:28:23.234Z,25.93
2023-07-19T05:30:14.926Z,26.23
2023-07-19T05:32:07.280Z,26.25
2023-07-19T05:34:01.212Z,26.28
2023-07-19T05:35:52.444Z,26.31
2023-07-19T05:37:44.034Z,26.59
2023-07-19T05:39:35.500Z,26.88
2023-07-19T05:41:27.082Z,27.13
2023-07-19T05:43:19.192Z,27.46
2023-07-19T05:45:10.803Z,27.76
2023-07-19T05:47:02.368Z,28.09
2023-07-19T05:48:53.618Z,27.93
2023-07-19T05:50:45.296Z,27.79
2023-07-19T05:52:37.561Z,27.89
2023-07-19T05:54:31.190Z,28.08
2023-07-19T05:56:23.152Z,28.29
2023-07-19T05:58:14.378Z,28.53
2023-07-19T06:00:20.531Z,28.79
2023-07-19T06:02:12.732Z,29.12
2023-07-19T06:04:04.479Z,29.36
2023-07-19T06:05:55.869Z,29.46
2023-07-19T06:07:47.976Z,29.70
2023-07-19T06:09:39.428Z,29.96
2023-07-19T06:11:30.681Z,29.91
2023-07-19T06:13:22.397Z,29.90
2023-07-19T06:15:15.440Z,30.19
2023-07-19T06:17:07.507Z,30.41
2023-07-19T06:18:58.816Z,30.72
2023-07-19T06:20:52.105Z,30.84
2023-07-19T06:22:45.198Z,30.76
2023-07-19T06:24:36.857Z,30.87
2023-07-19T06:26:28.430Z,30.94
2023-07-19T06:28:19.878Z,31.11
2023-07-19T06:30:12.813Z,31.11
2023-07-19T06:32:05.803Z,31.19
2023-07-19T06:33:57.758Z,31.19
2023-07-19T06:35:49.191Z,31.51
2023-07-19T06:37:40.425Z,31.85
2023-07-19T06:39:32.129Z,32.17
2023-07-19T06:41:23.688Z,32.46
2023-07-19T06:43:15.378Z,32.69
2023-07-19T06:45:07.102Z,32.82
2023-07-19T06:47:01.441Z,33.27
2023-07-19T06:48:52.958Z,33.44
2023-07-19T06:50:44.375Z,33.71
2023-07-19T06:52:35.832Z,33.94
2023-07-19T06:54:26.980Z,34.16
2023-07-19T06:56:18.285Z,34.40
2023-07-19T06:58:09.912Z,34.73
2023-07-19T07:00:01.587Z,34.98
2023-07-19T07:01:53.084Z,35.25
2023-07-19T07:03:44.367Z,35.40
2023-07-19T07:05:35.952Z,35.32
2023-07-19T07:07:27.265Z,35.36
2023-07-19T07:09:19.102Z,35.69
2023-07-19T07:11:10.693Z,35.74
2023-07-19T07:13:02.169Z,35.86
2023-07-19T07:14:53.495Z,36.10
2023-07-19T07:16:45.018Z,36.08
2023-07-19T07:18:36.379Z,36.10
2023-07-19T07:20:28.096Z,36.10
2023-07-19T07:22:20.418Z,36.43
2023-07-19T07:24:12.226Z,36.66
2023-07-19T07:26:04.417Z,36.83
2023-07-19T07:27:55.857Z,36.87
2023-07-19T07:29:47.507Z,36.84
2023-07-19T07:31:39.362Z,36.87
2023-07-19T07:33:31.136Z,36.90
2023-07-19T07:35:22.791Z,37.04
2023-07-19T07:37:13.997Z,37.15
2023-07-19T07:39:06.775Z,37.14
2023-07-19T07:41:02.103Z,37.33
2023-07-19T07:42:53.780Z,36.87
2023-07-19T07:44:47.150Z,36.83
2023-07-19T07:46:39.605Z,36.72
2023-07-19T07:48:31.887Z,36.66
2023-07-19T07:50:23.762Z,36.17
2023-07-19T07:52:16.964Z,36.23
2023-07-19T07:54:08.626Z,36.54
2023-07-19T07:56:00.072Z,36.90
2023-07-19T07:57:51.337Z,37.15
2023-07-19T07:59:43.084Z,37.46
2023-07-19T08:01:34.906Z,37.70
2023-07-19T08:03:26.068Z,37.71
2023-07-19T08:05:17.317Z,37.35
2023-07-19T08:07:08.461Z,37.43
2023-07-19T08:08:59.889Z,37.31
2023-07-19T08:10:51.548Z,37.45
2023-07-19T08:12:43.176Z,37.50
2023-07-19T08:14:34.709Z,37.33
2023-07-19T08:16:28.074Z,37.66
2023-07-19T08:18:19.823Z,38.09
2023-07-19T08:20:11.793Z,38.37
2023-07-19T08:22:05.297Z,38.41
2023-07-19T08:23:57.097Z,38.61
2023-07-19T08:25:48.566Z,38.58
2023-07-19T08:27:40.477Z,38.27
2023-07-19T08:29:31.974Z,38.38
2023-07-19T08:31:24.862Z,38.57
2023-07-19T08:33:16.777Z,38.79
2023-07-19T08:35:08.856Z,39.30
2023-07-19T08:37:01.177Z,39.28
2023-07-19T08:38:52.882Z,39.52
2023-07-19T08:40:50.946Z,39.70
2023-07-19T08:42:43.514Z,39.42
2023-07-19T08:44:35.171Z,39.22
2023-07-19T08:46:26.802Z,39.48
2023-07-19T08:48:18.081Z,39.62
2023-07-19T08:50:11.822Z,39.34
2023-07-19T08:52:03.910Z,39.33
2023-07-19T08:53:55.226Z,39.34
2023-07-19T08:55:46.449Z,39.62
2023-07-19T08:57:44.372Z,39.50
2023-07-19T08:59:35.776Z,39.86
2023-07-19T09:01:27.368Z,40.09
2023-07-19T09:03:19.112Z,39.96
2023-07-19T09:05:14.183Z,40.14
2023-07-19T09:07:05.978Z,39.85
2023-07-19T09:08:57.387Z,39.81
2023-07-19T09:10:48.555Z,39.93
2023-07-19T09:12:41.997Z,40.23
2023-07-19T09:14:37.577Z,40.54
2023-07-19T09:16:33.590Z,40.76
2023-07-19T09:18:30.363Z,40.96
2023-07-19T09:20:22.069Z,41.36
2023-07-19T09:22:16.026Z,40.97
2023-07-19T09:24:08.424Z,41.00
2023-07-19T09:25:59.585Z,41.27
2023-07-19T09:27:52.885Z,41.30
2023-07-19T09:29:44.212Z,41.01
2023-07-19T09:31:50.694Z,40.79
2023-07-19T09:33:42.293Z,40.82
2023-07-19T09:35:34.462Z,40.81
2023-07-19T09:37:26.310Z,40.79
2023-07-19T09:39:18.838Z,40.98
2023-07-19T09:41:12.154Z,41.07
2023-07-19T09:43:04.288Z,41.23
2023-07-19T09:44:55.584Z,41.12
2023-07-19T09:46:47.518Z,40.38
2023-07-19T09:48:38.948Z,39.99
2023-07-19T09:50:30.726Z,40.21
2023-07-19T09:52:25.623Z,40.66
2023-07-19T09:54:17.122Z,41.08
2023-07-19T09:56:10.226Z,41.17
2023-07-19T09:58:03.124Z,41.36
2023-07-19T09:59:55.313Z,41.30
2023-07-19T10:01:46.961Z,40.98
2023-07-19T10:03:38.384Z,40.56
2023-07-19T10:05:30.491Z,40.36
2023-07-19T10:07:25.885Z,40.68
2023-07-19T10:09:31.499Z,40.73
2023-07-19T10:11:24.437Z,40.48
2023-07-19T10:13:16.063Z,40.67
2023-07-19T10:15:08.759Z,40.22
2023-07-19T10:17:01.171Z,39.96
2023-07-19T10:19:28.118Z,39.72
2023-07-19T10:21:20.337Z,40.29
2023-07-19T10:23:14.867Z,40.47
2023-07-19T10:25:07.047Z,40.38
2023-07-19T10:27:00.767Z,40.50
2023-07-19T10:29:02.146Z,40.56
2023-07-19T10:30:54.906Z,40.93
2023-07-19T10:32:50.878Z,40.87
2023-07-19T10:34:45.839Z,41.28
2023-07-19T10:36:45.805Z,41.52
2023-07-19T10:38:40.525Z,41.70
2023-07-19T10:40:32.064Z,42.03
2023-07-19T10:42:23.540Z,41.83
2023-07-19T10:44:15.103Z,41.51
2023-07-19T10:46:07.349Z,41.24
2023-07-19T10:48:00.496Z,41.24
2023-07-19T10:49:53.656Z,41.25
2023-07-19T10:51:55.665Z,41.31
2023-07-19T10:53:49.558Z,41.52
2023-07-19T10:55:53.282Z,41.79
2023-07-19T10:57:45.085Z,41.66
2023-07-19T10:59:36.330Z,41.69
2023-07-19T11:01:30.474Z,41.87
2023-07-19T11:03:25.314Z,42.10
2023-07-19T11:05:17.146Z,42.36
2023-07-19T11:07:08.712Z,42.53
2023-07-19T11:09:10.929Z,42.70
2023-07-19T11:11:02.633Z,42.74
2023-07-19T11:12:54.283Z,42.84
2023-07-19T11:14:57.389Z,42.39
2023-07-19T11:16:48.580Z,41.67
2023-07-19T11:18:41.281Z,41.54
2023-07-19T11:20:32.904Z,41.46
2023-07-19T11:22:25.857Z,40.65
2023-07-19T11:24:17.430Z,40.38
2023-07-19T11:26:10.322Z,40.35
2023-07-19T11:28:02.072Z,40.44
2023-07-19T11:29:56.059Z,40.13
2023-07-19T11:31:47.429Z,39.88
2023-07-19T11:33:40.719Z,39.77
2023-07-19T11:35:32.145Z,40.31
2023-07-19T11:37:30.906Z,40.62
2023-07-19T11:39:24.746Z,41.06
2023-07-19T11:41:19.723Z,41.12
2023-07-19T11:43:11.520Z,41.02
2023-07-19T11:45:12.705Z,41.31
2023-07-19T11:47:04.558Z,41.40
2023-07-19T11:48:56.095Z,41.17
2023-07-19T11:50:49.271Z,41.25
2023-07-19T11:52:45.061Z,41.56
2023-07-19T11:54:36.623Z,41.91
2023-07-19T11:56:30.273Z,42.03
2023-07-19T11:58:31.511Z,41.92
2023-07-19T12:00:32.660Z,41.88
2023-07-19T12:02:25.428Z,41.53
2023-07-19T12:06:10.395Z,41.13
2023-07-19T12:08:02.274Z,41.27
2023-07-19T12:09:53.324Z,41.41
2023-07-19T12:11:46.712Z,41.63
2023-07-19T12:13:38.320Z,41.81
2023-07-19T12:15:29.914Z,42.11
2023-07-19T12:17:21.643Z,42.28
2023-07-19T12:19:13.133Z,42.41
2023-07-19T12:21:07.514Z,42.34
2023-07-19T12:22:59.045Z,42.40
2023-07-19T12:24:50.655Z,42.30
2023-07-19T12:26:42.502Z,42.55
2023-07-19T12:28:34.405Z,42.75
2023-07-19T12:30:26.860Z,42.97
2023-07-19T12:32:18.201Z,42.75
2023-07-19T12:34:09.658Z,42.26
2023-07-19T12:36:01.042Z,41.95
2023-07-19T12:37:52.741Z,41.72
2023-07-19T12:39:44.950Z,41.70
2023-07-19T12:41:38.907Z,41.80
2023-07-19T12:43:31.064Z,41.68
2023-07-19T12:45:22.163Z,41.57
2023-07-19T12:47:13.324Z,41.65
2023-07-19T12:49:04.447Z,41.69
2023-07-19T12:50:55.879Z,41.68
2023-07-19T12:52:52.437Z,41.41
2023-07-19T12:54:44.329Z,40.94
2023-07-19T12:56:36.180Z,41.27
2023-07-19T12:58:27.500Z,41.43
2023-07-19T13:00:19.345Z,41.47
2023-07-19T13:02:11.035Z,41.73
2023-07-19T13:04:03.996Z,42.09
2023-07-19T13:05:55.450Z,42.29
2023-07-19T13:07:47.086Z,42.20
2023-07-19T13:09:38.544Z,42.18
2023-07-19T13:11:32.584Z,42.18
2023-07-19T13:13:24.172Z,41.86
2023-07-19T13:15:15.461Z,41.74
2023-07-19T13:17:21.338Z,41.83
2023-07-19T13:19:14.404Z,41.94
2023-07-19T13:21:05.957Z,41.89
2023-07-19T13:22:57.546Z,42.02
2023-07-19T13:24:48.889Z,41.48
2023-07-19T13:26:40.794Z,41.47
2023-07-19T13:28:32.364Z,41.64
2023-07-19T13:30:25.108Z,41.93
2023-07-19T13:32:16.622Z,41.91
2023-07-19T13:34:08.018Z,41.76
2023-07-19T13:35:59.988Z,41.63
2023-07-19T13:39:46.131Z,41.91
2023-07-19T13:41:37.596Z,41.92
2023-07-19T13:43:29.385Z,42.05
2023-07-19T13:45:20.995Z,41.96
2023-07-19T13:47:12.348Z,41.51
2023-07-19T13:49:04.454Z,41.41
2023-07-19T13:50:56.755Z,41.15
2023-07-19T13:52:47.977Z,40.84
2023-07-19T13:54:39.697Z,40.73
2023-07-19T13:56:31.107Z,40.34
2023-07-19T13:58:22.838Z,39.96
2023-07-19T14:00:14.905Z,39.73
2023-07-19T14:02:06.528Z,39.81
2023-07-19T14:03:58.012Z,39.91
2023-07-19T14:05:49.325Z,39.88
2023-07-19T14:07:40.649Z,39.69
2023-07-19T14:09:32.020Z,39.56
2023-07-19T14:11:23.470Z,39.16
2023-07-19T14:13:28.938Z,38.89
2023-07-19T14:15:23.848Z,38.49
2023-07-19T14:17:14.874Z,38.18
2023-07-19T14:19:06.102Z,37.96
2023-07-19T14:20:57.164Z,38.08
2023-07-19T14:22:48.763Z,38.44
2023-07-19T14:24:41.584Z,38.71
2023-07-19T14:26:33.192Z,38.76
2023-07-19T14:28:24.499Z,38.72
2023-07-19T14:30:16.054Z,38.97
2023-07-19T14:32:09.324Z,39.09
2023-07-19T14:34:00.681Z,39.00
2023-07-19T14:35:52.944Z,39.13
2023-07-19T14:37:45.734Z,39.43
2023-07-19T14:39:37.594Z,39.67
2023-07-19T14:41:30.495Z,39.54
2023-07-19T14:43:22.567Z,39.45
2023-07-19T14:45:14.132Z,39.32
2023-07-19T14:47:06.173Z,39.54
2023-07-19T14:48:57.787Z,39.57
2023-07-19T14:50:56.149Z,39.62
2023-07-19T14:52:51.659Z,39.44
2023-07-19T14:54:45.168Z,39.34
2023-07-19T14:56:36.864Z,39.21
2023-07-19T14:58:28.082Z,39.01
2023-07-19T15:00:39.504Z,38.92
2023-07-19T15:02:34.211Z,38.88
2023-07-19T15:04:26.273Z,38.76
2023-07-19T15:06:17.676Z,38.84
2023-07-19T15:08:10.366Z,38.68
2023-07-19T15:10:03.295Z,38.44
2023-07-19T15:11:54.542Z,38.63
2023-07-19T15:13:46.199Z,38.84
2023-07-19T15:15:37.687Z,38.83
2023-07-19T15:17:31.579Z,38.97
2023-07-19T15:19:24.212Z,38.86
2023-07-19T15:21:15.535Z,38.90
2023-07-19T15:23:07.204Z,39.00
2023-07-19T15:24:58.810Z,38.94
2023-07-19T15:26:50.079Z,38.96
2023-07-19T15:28:41.222Z,39.08
2023-07-19T15:30:32.656Z,39.23
2023-07-19T15:32:24.106Z,39.34
2023-07-19T15:34:15.560Z,39.33
2023-07-19T15:36:06.898Z,39.14
2023-07-19T15:37:58.403Z,39.13
2023-07-19T15:39:49.359Z,39.04
2023-07-19T15:41:40.871Z,38.84
2023-07-19T15:43:32.562Z,38.52
2023-07-19T15:45:24.683Z,38.20
2023-07-19T15:47:16.519Z,38.03
2023-07-19T15:49:07.781Z,38.07
2023-07-19T15:50:59.712Z,38.09
2023-07-19T15:52:50.960Z,38.22
2023-07-19T15:54:42.384Z,38.30
2023-07-19T15:56:34.080Z,38.33
2023-07-19T15:58:25.384Z,38.28
2023-07-19T16:00:17.335Z,38.35
2023-07-19T16:02:09.655Z,38.19
2023-07-19T16:04:01.045Z,37.82
2023-07-19T16:05:52.542Z,37.70
2023-07-19T16:07:43.671Z,37.75
2023-07-19T16:09:35.093Z,37.77
2023-07-19T16:11:26.790Z,37.79
2023-07-19T16:13:18.431Z,37.81
2023-07-19T16:15:10.416Z,37.75
2023-07-19T16:17:01.776Z,37.69
2023-07-19T16:18:53.391Z,37.77
2023-07-19T16:20:44.792Z,37.64
2023-07-19T16:22:36.841Z,37.62
2023-07-19T16:24:28.254Z,37.52
2023-07-19T16:26:19.528Z,37.56
2023-07-19T16:28:10.834Z,37.68
2023-07-19T16:30:02.667Z,37.85
2023-07-19T16:31:56.021Z,37.86
2023-07-19T16:33:48.426Z,37.87
2023-07-19T16:35:39.605Z,37.94
2023-07-19T16:37:30.926Z,37.85
2023-07-19T16:39:22.349Z,37.76
2023-07-19T16:41:14.026Z,38.00
2023-07-19T16:43:05.561Z,38.02
2023-07-19T16:44:57.298Z,38.10
2023-07-19T16:46:48.586Z,38.13
2023-07-19T16:48:40.247Z,38.15
2023-07-19T16:50:32.094Z,38.20
2023-07-19T16:52:23.275Z,38.44
2023-07-19T16:54:15.544Z,38.43
2023-07-19T16:56:07.443Z,38.43
2023-07-19T16:58:03.677Z,38.14
2023-07-19T17:00:06.568Z,37.81
2023-07-19T17:02:02.089Z,37.40
2023-07-19T17:03:53.902Z,37.09
2023-07-19T17:05:46.085Z,36.87
2023-07-19T17:07:37.567Z,36.68
2023-07-19T17:09:29.365Z,36.52
2023-07-19T17:11:20.948Z,36.38
2023-07-19T17:13:12.816Z,36.24
2023-07-19T17:15:04.316Z,35.98
2023-07-19T17:17:10.296Z,35.95
2023-07-19T17:19:15.216Z,35.79
2023-07-19T17:21:07.946Z,35.62
2023-07-19T17:23:00.022Z,35.50
2023-07-19T17:24:51.460Z,35.42
2023-07-19T17:26:42.770Z,35.35
2023-07-19T17:28:33.886Z,35.29
2023-07-19T17:30:25.439Z,35.21
2023-07-19T17:32:16.962Z,35.18
2023-07-19T17:34:08.080Z,35.10
2023-07-19T17:35:59.761Z,35.05
2023-07-19T17:37:51.529Z,34.95
2023-07-19T17:39:42.759Z,34.88
2023-07-19T17:41:34.387Z,34.69
2023-07-19T17:43:26.423Z,34.56
2023-07-19T17:45:17.554Z,34.59
2023-07-19T17:47:08.944Z,34.41
2023-07-19T17:49:00.596Z,34.38
2023-07-19T17:50:52.254Z,34.37
2023-07-19T17:52:45.501Z,34.36
2023-07-19T17:54:36.940Z,34.42
2023-07-19T17:56:28.600Z,34.39
2023-07-19T17:58:20.137Z,34.29
2023-07-19T18:00:12.323Z,34.34
2023-07-19T18:02:03.847Z,34.32
2023-07-19T18:03:56.102Z,34.19
2023-07-19T18:05:47.729Z,33.92
2023-07-19T18:07:38.868Z,33.65
2023-07-19T18:09:30.511Z,33.55
2023-07-19T18:11:22.214Z,33.48
2023-07-19T18:13:14.015Z,33.46
2023-07-19T18:15:07.392Z,33.40
2023-07-19T18:16:58.870Z,33.25
2023-07-19T18:18:50.135Z,33.12
2023-07-19T18:20:41.815Z,33.03
2023-07-19T18:22:33.664Z,32.93
2023-07-19T18:24:25.286Z,32.88
2023-07-19T18:26:17.162Z,32.75
2023-07-19T18:28:08.937Z,32.64
2023-07-19T18:30:00.801Z,32.58
2023-07-19T18:31:52.467Z,32.52
2023-07-19T18:33:43.458Z,32.47
2023-07-19T18:35:34.991Z,32.37
2023-07-19T18:37:26.471Z,32.31
2023-07-19T18:39:17.645Z,32.28
2023-07-19T18:41:08.982Z,32.19
2023-07-19T18:43:00.338Z,32.07
2023-07-19T18:44:52.010Z,31.99
2023-07-19T18:46:43.391Z,31.91
2023-07-19T18:48:34.908Z,31.84
2023-07-19T18:50:26.370Z,31.79
2023-07-19T18:52:18.212Z,31.74
2023-07-19T18:54:09.600Z,31.58
2023-07-19T18:56:00.706Z,31.46
2023-07-19T18:57:52.156Z,31.41
2023-07-19T18:59:43.377Z,31.33
2023-07-19T19:01:34.925Z,31.23
2023-07-19T19:03:26.888Z,31.11
2023-07-19T19:05:18.456Z,31.08
2023-07-19T19:07:10.171Z,30.99
2023-07-19T19:09:24.523Z,30.89
2023-07-19T19:11:15.953Z,30.82
2023-07-19T19:13:07.465Z,30.78
2023-07-19T19:14:59.643Z,30.73
2023-07-19T19:16:51.365Z,30.63
2023-07-19T19:18:42.628Z,30.59
2023-07-19T19:20:34.300Z,30.54
2023-07-19T19:22:26.030Z,30.46
2023-07-19T19:24:17.457Z,30.34
2023-07-19T19:26:08.969Z,30.28
2023-07-19T19:28:00.711Z,30.24
2023-07-19T19:29:52.028Z,30.22
2023-07-19T19:31:44.205Z,30.14
2023-07-19T19:33:35.665Z,30.11
2023-07-19T19:35:27.013Z,30.07
2023-07-19T19:37:18.048Z,30.02
2023-07-19T19:39:19.406Z,29.94
2023-07-19T19:41:18.676Z,29.87
2023-07-19T19:43:10.944Z,29.75
2023-07-19T19:45:06.284Z,29.73
2023-07-19T19:46:57.661Z,29.70
2023-07-19T19:48:49.221Z,29.58
2023-07-19T19:50:41.099Z,29.48
2023-07-19T19:52:32.696Z,29.44
2023-07-19T19:54:25.574Z,29.38
2023-07-19T19:56:18.588Z,29.37
2023-07-19T19:58:11.264Z,29.39
2023-07-19T20:00:03.008Z,29.41
2023-07-19T20:02:37.007Z,29.36
2023-07-19T20:04:06.913Z,29.36
2023-07-19T20:05:59.251Z,29.34
2023-07-19T20:07:54.190Z,29.35
2023-07-19T20:09:59.731Z,29.35
2023-07-19T20:11:53.328Z,29.35
2023-07-19T20:13:44.452Z,29.31
2023-07-19T20:15:47.264Z,29.25
2023-07-19T20:17:39.598Z,29.17
2023-07-19T20:19:33.595Z,29.15
2023-07-19T20:21:25.286Z,29.08
2023-07-19T20:23:17.194Z,29.08
2023-07-19T20:25:20.198Z,29.09
2023-07-19T20:27:23.488Z,29.02
2023-07-19T20:31:09.486Z,28.90
2023-07-19T20:33:00.982Z,28.85
2023-07-19T20:36:47.330Z,28.89
2023-07-19T20:42:28.257Z,28.79
2023-07-19T20:44:21.235Z,28.74
2023-07-19T20:48:09.200Z,28.68
2023-07-19T20:50:00.784Z,28.61
2023-07-19T20:51:52.384Z,28.57
2023-07-19T20:53:44.065Z,28.61
2023-07-19T20:55:35.638Z,28.61
2023-07-19T20:57:27.178Z,28.58
2023-07-19T20:59:19.930Z,28.56
2023-07-19T21:01:12.713Z,28.53
2023-07-19T21:03:04.610Z,28.51
2023-07-19T21:04:56.229Z,28.50
2023-07-19T21:06:47.441Z,28.50
2023-07-19T21:08:39.162Z,28.57
2023-07-19T21:10:30.675Z,28.56
2023-07-19T21:12:22.124Z,28.52
2023-07-19T21:14:13.520Z,28.46
2023-07-19T21:16:05.660Z,28.53
2023-07-19T21:17:56.990Z,28.55
2023-07-19T21:19:48.438Z,28.50
2023-07-19T21:21:39.783Z,28.47
2023-07-19T21:23:31.735Z,28.44
2023-07-19T21:25:23.287Z,28.50
2023-07-19T21:27:14.536Z,28.48
2023-07-19T21:29:06.443Z,28.52
2023-07-19T21:30:57.974Z,28.56
2023-07-19T21:32:49.662Z,28.55
2023-07-19T21:34:41.512Z,28.50
2023-07-19T21:36:33.215Z,28.36
2023-07-19T21:38:24.435Z,28.35
2023-07-19T21:40:15.693Z,28.39
2023-07-19T21:42:07.807Z,28.40
2023-07-19T21:44:00.300Z,28.36
2023-07-19T21:45:53.186Z,28.24
2023-07-19T21:47:44.549Z,28.16
2023-07-19T21:49:36.299Z,28.23
2023-07-19T21:51:28.047Z,28.32
2023-07-19T21:53:19.302Z,28.24
2023-07-19T21:55:11.179Z,28.20
2023-07-19T21:57:02.718Z,28.21
2023-07-19T21:58:54.251Z,28.27
2023-07-19T22:00:47.277Z,28.20
2023-07-19T22:02:38.779Z,28.23
2023-07-19T22:04:31.490Z,28.30
2023-07-19T22:06:23.090Z,28.26
2023-07-19T22:08:14.996Z,28.18
2023-07-19T22:10:07.024Z,28.08
2023-07-19T22:11:58.375Z,28.14
2023-07-19T22:13:49.678Z,28.11
2023-07-19T22:15:41.223Z,28.15
2023-07-19T22:17:33.052Z,28.18
2023-07-19T22:19:24.569Z,28.17
2023-07-19T22:21:22.058Z,28.24
2023-07-19T22:23:17.679Z,28.30
2023-07-19T22:25:09.136Z,28.21
2023-07-19T22:27:00.211Z,28.17
2023-07-19T22:28:59.095Z,28.17
2023-07-19T22:30:54.140Z,28.09
2023-07-19T22:32:45.784Z,28.11
2023-07-19T22:34:37.182Z,28.04
2023-07-19T22:36:28.698Z,27.86
2023-07-19T22:38:20.108Z,27.71
2023-07-19T22:40:12.785Z,27.40
2023-07-19T22:42:04.221Z,27.37
2023-07-19T22:43:55.854Z,27.32
2023-07-19T22:45:47.452Z,27.27
2023-07-19T22:47:38.729Z,27.09
2023-07-19T22:49:30.204Z,27.05
2023-07-19T22:51:21.560Z,26.87
2023-07-19T22:53:14.085Z,26.51
2023-07-19T22:55:05.701Z,26.38
2023-07-19T22:56:57.518Z,26.26
2023-07-19T22:58:48.895Z,26.08
2023-07-19T23:00:40.270Z,25.94
2023-07-19T23:02:32.167Z,25.78
2023-07-19T23:04:23.613Z,25.60
2023-07-19T23:06:15.130Z,25.48
2023-07-19T23:08:06.680Z,25.40
2023-07-19T23:09:58.400Z,25.30
2023-07-19T23:11:50.313Z,25.21
2023-07-19T23:13:41.504Z,25.19
2023-07-19T23:15:33.080Z,25.08
2023-07-19T23:17:24.830Z,25.12
2023-07-19T23:19:16.402Z,25.16
2023-07-19T23:21:08.084Z,25.35
2023-07-19T23:23:01.033Z,25.32
2023-07-19T23:24:52.381Z,25.34
2023-07-19T23:26:43.430Z,25.33
2023-07-19T23:28:37.054Z,25.27
2023-07-19T23:30:29.026Z,25.31
2023-07-19T23:32:24.312Z,25.30
2023-07-19T23:34:15.691Z,25.26
2023-07-19T23:36:09.184Z,25.29
2023-07-19T23:38:01.189Z,25.28
2023-07-19T23:39:52.654Z,25.32
2023-07-19T23:41:43.885Z,25.37
2023-07-19T23:43:35.025Z,25.37
2023-07-19T23:45:26.268Z,25.32
2023-07-19T23:47:17.860Z,25.37
2023-07-19T23:49:12.730Z,25.46
2023-07-19T23:51:04.465Z,25.33
2023-07-19T23:52:56.204Z,25.04
2023-07-19T23:54:47.880Z,24.81
2023-07-19T23:56:39.408Z,24.88
2023-07-19T23:58:30.693Z,24.84
